createdAt,value
2018-11-07T00:00:47.608Z,99698.25
2018-11-07T00:03:16.757Z,99699.48
2018-11-07T00:05:45.348Z,99703.72
2018-11-07T00:08:14.038Z,99707.36
2018-11-07T00:10:42.476Z,99713.44
2018-11-07T00:13:11.165Z,99716.45
2018-11-07T00:15:39.753Z,99713.30
2018-11-07T00:18:09.229Z,99710.99
2018-11-07T00:20:37.816Z,99703.91
2018-11-07T00:23:06.367Z,99702.33
2018-11-07T00:25:35.001Z,99700.71
2018-11-07T00:28:03.605Z,99697.13
2018-11-07T00:30:32.346Z,99698.52
2018-11-07T00:33:00.895Z,99698.31
2018-11-07T00:35:29.509Z,99706.52
2018-11-07T00:37:58.136Z,99694.60
2018-11-07T00:40:26.712Z,99700.59
2018-11-07T00:42:55.864Z,99700.00
2018-11-07T00:45:24.662Z,99704.89
2018-11-07T00:47:53.473Z,99703.11
2018-11-07T00:50:22.358Z,99704.99
2018-11-07T00:52:51.312Z,99719.33
2018-11-07T00:55:20.342Z,99723.00
2018-11-07T00:57:49.249Z,99716.05
2018-11-07T01:00:19.144Z,99714.50
2018-11-07T01:02:48.900Z,99715.45
2018-11-07T01:05:17.530Z,99724.84
2018-11-07T01:07:47.350Z,99723.97
2018-11-07T01:10:16.001Z,99726.30
2018-11-07T01:12:44.948Z,99723.30
2018-11-07T01:15:14.240Z,99730.79
2018-11-07T01:17:42.848Z,99730.17
2018-11-07T01:20:13.354Z,99733.12
2018-11-07T01:22:42.047Z,99725.44
2018-11-07T01:25:10.946Z,99731.34
2018-11-07T01:27:39.899Z,99733.74
2018-11-07T01:30:10.910Z,99743.26
2018-11-07T01:32:39.865Z,99743.71
2018-11-07T01:35:08.857Z,99739.02
2018-11-07T01:37:37.549Z,99744.68
2018-11-07T01:40:09.068Z,99746.14
2018-11-07T01:42:37.597Z,99731.28
2018-11-07T01:45:07.556Z,99732.77
2018-11-07T01:47:36.348Z,99733.08
2018-11-07T01:50:06.145Z,99723.83
2018-11-07T01:52:34.713Z,99717.22
2018-11-07T01:55:03.377Z,99719.75
2018-11-07T01:57:31.901Z,99716.56
2018-11-07T02:00:00.549Z,99712.89
2018-11-07T02:02:29.459Z,99701.34
2018-11-07T02:04:58.065Z,99696.30
2018-11-07T02:07:26.624Z,99693.82
2018-11-07T02:09:55.332Z,99696.05
2018-11-07T02:12:23.901Z,99694.69
2018-11-07T02:14:52.504Z,99693.36
2018-11-07T02:17:21.133Z,99695.05
2018-11-07T02:19:49.704Z,99702.13
2018-11-07T02:22:18.376Z,99707.03
2018-11-07T02:24:46.937Z,99709.59
2018-11-07T02:27:15.999Z,99702.70
2018-11-07T02:29:44.612Z,99703.85
2018-11-07T02:32:13.197Z,99703.20
2018-11-07T02:34:41.762Z,99700.77
2018-11-07T02:37:10.525Z,99711.48
2018-11-07T02:39:39.020Z,99710.13
2018-11-07T02:42:07.733Z,99711.64
2018-11-07T02:44:36.285Z,99708.22
2018-11-07T02:47:04.857Z,99723.65
2018-11-07T02:49:33.545Z,99728.25
2018-11-07T02:52:02.167Z,99722.17
2018-11-07T02:54:30.819Z,99726.39
2018-11-07T02:56:59.392Z,99722.14
2018-11-07T02:59:28.013Z,99714.55
2018-11-07T03:01:56.541Z,99720.83
2018-11-07T03:04:25.270Z,99703.36
2018-11-07T03:06:53.964Z,99711.05
2018-11-07T03:09:22.649Z,99704.64
2018-11-07T03:11:51.428Z,99711.27
2018-11-07T03:14:20.029Z,99712.97
2018-11-07T03:16:48.777Z,99710.14
2018-11-07T03:19:17.361Z,99715.39
2018-11-07T03:21:46.054Z,99715.88
2018-11-07T03:24:15.292Z,99714.02
2018-11-07T03:26:43.940Z,99718.25
2018-11-07T03:29:12.776Z,99714.67
2018-11-07T03:31:41.328Z,99708.66
2018-11-07T03:34:09.921Z,99708.53
2018-11-07T03:36:38.689Z,99708.67
2018-11-07T03:39:09.709Z,99700.86
2018-11-07T03:41:38.757Z,99696.73
2018-11-07T03:44:08.361Z,99695.02
2018-11-07T03:46:36.914Z,99701.58
2018-11-07T03:49:06.422Z,99705.39
2018-11-07T03:51:35.100Z,99701.28
2018-11-07T03:54:03.946Z,99703.95
2018-11-07T03:56:32.570Z,99705.50
2018-11-07T03:59:01.218Z,99699.47
2018-11-07T04:01:29.988Z,99693.89
2018-11-07T04:03:58.665Z,99697.02
2018-11-07T04:06:27.283Z,99703.58
2018-11-07T04:08:55.838Z,99700.41
2018-11-07T04:11:24.532Z,99710.47
2018-11-07T04:13:53.099Z,99713.98
2018-11-07T04:16:21.665Z,99704.86
2018-11-07T04:18:50.340Z,99707.88
2018-11-07T04:21:19.010Z,99714.37
2018-11-07T04:23:51.859Z,99717.56
2018-11-07T04:26:20.563Z,99722.49
2018-11-07T04:28:49.162Z,99721.55
2018-11-07T04:31:17.760Z,99718.02
2018-11-07T04:33:46.353Z,99724.99
2018-11-07T04:36:14.960Z,99727.98
2018-11-07T04:38:43.757Z,99714.26
2018-11-07T04:41:12.456Z,99716.20
2018-11-07T04:43:41.060Z,99714.47
2018-11-07T04:46:09.761Z,99716.55
2018-11-07T04:48:38.383Z,99716.03
2018-11-07T04:51:07.545Z,99719.22
2018-11-07T04:53:36.436Z,99720.38
2018-11-07T04:56:05.108Z,99717.52
2018-11-07T04:58:33.712Z,99723.08
2018-11-07T05:01:02.288Z,99722.66
2018-11-07T05:03:30.911Z,99717.55
2018-11-07T05:05:59.517Z,99714.08
2018-11-07T05:08:28.284Z,99710.09
2018-11-07T05:10:56.936Z,99711.40
2018-11-07T05:13:25.580Z,99712.08
2018-11-07T05:15:54.137Z,99727.63
2018-11-07T05:18:22.772Z,99724.92
2018-11-07T05:20:51.784Z,99736.34
2018-11-07T05:23:20.636Z,99745.55
2018-11-07T05:25:49.204Z,99749.78
2018-11-07T05:28:17.736Z,99751.73
2018-11-07T05:30:47.600Z,99748.02
2018-11-07T05:33:16.184Z,99753.19
2018-11-07T05:35:44.826Z,99751.16
2018-11-07T05:38:13.345Z,99753.34
2018-11-07T05:40:42.030Z,99751.58
2018-11-07T05:43:10.717Z,99751.07
2018-11-07T05:45:39.329Z,99747.63
2018-11-07T05:48:08.120Z,99757.77
2018-11-07T05:50:36.705Z,99750.59
2018-11-07T05:53:05.544Z,99756.98
2018-11-07T05:55:34.085Z,99753.94
2018-11-07T05:58:02.681Z,99754.72
2018-11-07T06:00:31.218Z,99758.49
2018-11-07T06:02:59.848Z,99765.08
2018-11-07T06:05:28.436Z,99759.42
2018-11-07T06:07:57.364Z,99754.75
2018-11-07T06:10:25.952Z,99750.96
2018-11-07T06:12:54.616Z,99756.48
2018-11-07T06:15:23.229Z,99755.83
2018-11-07T06:17:51.864Z,99764.18
2018-11-07T06:20:20.456Z,99762.60
2018-11-07T06:22:49.064Z,99768.48
2018-11-07T06:25:17.760Z,99771.15
2018-11-07T06:27:46.431Z,99762.70
2018-11-07T06:30:15.388Z,99763.22
2018-11-07T06:32:43.928Z,99769.24
2018-11-07T06:35:12.460Z,99770.57
2018-11-07T06:37:41.389Z,99773.05
2018-11-07T06:40:11.581Z,99773.98
2018-11-07T06:42:40.714Z,99771.18
2018-11-07T06:45:10.298Z,99778.03
2018-11-07T06:47:38.848Z,99777.63
2018-11-07T06:50:10.413Z,99781.56
2018-11-07T06:52:39.073Z,99780.67
2018-11-07T06:55:08.524Z,99782.45
2018-11-07T06:57:37.314Z,99787.45
2018-11-07T07:00:09.337Z,99782.14
2018-11-07T07:02:37.965Z,99785.61
2018-11-07T07:05:07.696Z,99779.63
2018-11-07T07:07:36.690Z,99777.48
2018-11-07T07:10:07.272Z,99786.45
2018-11-07T07:12:36.024Z,99785.38
2018-11-07T07:15:04.947Z,99780.37
2018-11-07T07:17:33.568Z,99782.92
2018-11-07T07:20:02.229Z,99794.87
2018-11-07T07:22:30.835Z,99800.95
2018-11-07T07:24:59.438Z,99794.14
2018-11-07T07:27:27.961Z,99794.14
2018-11-07T07:29:56.676Z,99801.17
2018-11-07T07:32:25.240Z,99804.57
2018-11-07T07:34:53.776Z,99808.92
2018-11-07T07:37:22.389Z,99814.25
2018-11-07T07:39:51.105Z,99811.11
2018-11-07T07:42:19.696Z,99813.17
2018-11-07T07:44:48.292Z,99806.16
2018-11-07T07:47:16.912Z,99809.55
2018-11-07T07:49:45.564Z,99815.27
2018-11-07T07:52:14.188Z,99809.33
2018-11-07T07:54:43.005Z,99811.91
2018-11-07T07:57:12.139Z,99810.86
2018-11-07T07:59:40.880Z,99809.55
2018-11-07T08:02:09.513Z,99814.44
2018-11-07T08:04:38.044Z,99819.38
2018-11-07T08:07:06.821Z,99809.88
2018-11-07T08:09:35.329Z,99802.95
2018-11-07T08:12:04.026Z,99807.70
2018-11-07T08:14:32.601Z,99801.59
2018-11-07T08:17:01.165Z,99803.83
2018-11-07T08:19:30.065Z,99805.20
2018-11-07T08:21:58.672Z,99809.07
2018-11-07T08:24:27.250Z,99809.47
2018-11-07T08:26:55.817Z,99814.63
2018-11-07T08:29:24.465Z,99809.89
2018-11-07T08:31:53.060Z,99811.49
2018-11-07T08:34:21.660Z,99806.17
2018-11-07T08:36:50.295Z,99805.97
2018-11-07T08:39:18.945Z,99807.34
2018-11-07T08:41:47.540Z,99811.22
2018-11-07T08:44:16.145Z,99808.02
2018-11-07T08:46:44.825Z,99803.98
2018-11-07T08:49:13.465Z,99809.01
2018-11-07T08:51:42.189Z,99807.25
2018-11-07T08:54:10.939Z,99809.29
2018-11-07T08:56:39.513Z,99802.82
2018-11-07T08:59:08.089Z,99807.64
2018-11-07T09:04:05.445Z,99812.14
2018-11-07T09:06:34.029Z,99812.77
2018-11-07T09:09:02.696Z,99803.48
2018-11-07T09:11:31.237Z,99804.63
2018-11-07T09:14:00.469Z,99804.45
2018-11-07T09:16:29.005Z,99803.59
2018-11-07T09:18:57.626Z,99803.48
2018-11-07T09:21:26.245Z,99808.63
2018-11-07T09:23:54.785Z,99810.05
2018-11-07T09:26:23.410Z,99808.77
2018-11-07T09:28:52.124Z,99811.23
2018-11-07T09:31:20.752Z,99812.06
2018-11-07T09:33:49.397Z,99810.25
2018-11-07T09:36:18.032Z,99818.31
2018-11-07T09:38:46.709Z,99810.67
2018-11-07T09:41:15.284Z,99815.61
2018-11-07T09:43:43.920Z,99813.65
2018-11-07T09:46:12.625Z,99804.44
2018-11-07T09:48:41.297Z,99805.95
2018-11-07T09:51:09.912Z,99809.53
2018-11-07T09:53:38.524Z,99806.28
2018-11-07T09:56:07.048Z,99808.74
2018-11-07T09:58:35.696Z,99810.09
2018-11-07T10:01:04.305Z,99816.16
2018-11-07T10:03:32.921Z,99817.32
2018-11-07T10:06:01.611Z,99816.16
2018-11-07T10:08:30.129Z,99813.72
2018-11-07T10:10:59.017Z,99819.09
2018-11-07T10:13:27.533Z,99814.43
2018-11-07T10:15:56.280Z,99812.37
2018-11-07T10:18:24.861Z,99814.12
2018-11-07T10:20:53.400Z,99808.13
2018-11-07T10:23:22.074Z,99800.64
2018-11-07T10:25:50.749Z,99804.42
2018-11-07T10:28:19.561Z,99800.05
2018-11-07T10:30:48.060Z,99809.89
2018-11-07T10:33:16.617Z,99804.61
2018-11-07T10:35:45.525Z,99799.22
2018-11-07T10:38:14.134Z,99802.10
2018-11-07T10:40:42.713Z,99806.86
2018-11-07T10:43:11.325Z,99800.53
2018-11-07T10:45:39.929Z,99793.34
2018-11-07T10:48:08.596Z,99787.67
2018-11-07T10:50:37.216Z,99788.58
2018-11-07T10:53:05.817Z,99781.96
2018-11-07T10:55:34.421Z,99773.62
2018-11-07T10:58:02.998Z,99775.75
2018-11-07T11:00:36.921Z,99766.48
2018-11-07T11:03:10.897Z,99768.86
2018-11-07T11:05:40.160Z,99769.42
2018-11-07T11:08:09.081Z,99768.56
2018-11-07T11:10:38.173Z,99765.73
2018-11-07T11:13:07.221Z,99768.31
2018-11-07T11:15:35.781Z,99765.66
2018-11-07T11:18:04.549Z,99774.84
2018-11-07T11:20:33.078Z,99769.03
2018-11-07T11:23:01.748Z,99772.55
2018-11-07T11:25:30.305Z,99769.14
2018-11-07T11:27:58.853Z,99765.74
2018-11-07T11:30:27.432Z,99766.38
2018-11-07T11:32:56.037Z,99757.30
2018-11-07T11:35:24.697Z,99761.65
2018-11-07T11:37:53.272Z,99757.02
2018-11-07T11:40:21.896Z,99757.20
2018-11-07T11:42:50.677Z,99740.88
2018-11-07T11:45:19.246Z,99746.93
2018-11-07T11:47:47.808Z,99737.47
2018-11-07T11:50:17.696Z,99741.73
2018-11-07T11:52:47.236Z,99742.91
2018-11-07T11:55:15.934Z,99736.55
2018-11-07T11:57:45.302Z,99737.02
2018-11-07T12:00:16.131Z,99732.21
2018-11-07T12:02:45.064Z,99722.91
2018-11-07T12:05:14.570Z,99719.61
2018-11-07T12:07:43.453Z,99709.94
2018-11-07T12:10:17.584Z,99713.09
2018-11-07T12:12:48.578Z,99707.65
2018-11-07T12:15:18.345Z,99702.16
2018-11-07T12:17:47.077Z,99707.89
2018-11-07T12:20:15.681Z,99703.90
2018-11-07T12:22:44.263Z,99698.42
2018-11-07T12:25:14.065Z,99698.06
2018-11-07T12:27:43.201Z,99694.90
2018-11-07T12:30:14.076Z,99691.70
2018-11-07T12:32:44.135Z,99689.02
2018-11-07T12:35:13.039Z,99683.59
2018-11-07T12:37:42.119Z,99680.87
2018-11-07T12:40:11.528Z,99671.97
2018-11-07T12:42:40.326Z,99671.58
2018-11-07T12:45:10.344Z,99674.64
2018-11-07T12:47:39.247Z,99673.70
2018-11-07T12:50:12.722Z,99677.16
2018-11-07T12:52:41.712Z,99677.98
2018-11-07T12:55:11.747Z,99678.22
2018-11-07T12:57:40.396Z,99678.88
2018-11-07T13:00:13.305Z,99681.63
2018-11-07T13:02:41.867Z,99688.80
2018-11-07T13:05:12.126Z,99685.72
2018-11-07T13:07:41.266Z,99689.56
2018-11-07T13:10:13.328Z,99683.20
2018-11-07T13:12:42.865Z,99687.95
2018-11-07T13:15:12.253Z,99679.47
2018-11-07T13:17:41.002Z,99680.86
2018-11-07T13:20:12.113Z,99682.52
2018-11-07T13:22:41.035Z,99684.48
2018-11-07T13:25:10.987Z,99683.63
2018-11-07T13:27:39.577Z,99678.90
2018-11-07T13:30:12.021Z,99687.52
2018-11-07T13:32:40.958Z,99682.87
2018-11-07T13:35:10.501Z,99688.38
2018-11-07T13:37:40.084Z,99683.14
2018-11-07T13:40:14.093Z,99683.55
2018-11-07T13:42:42.717Z,99690.11
2018-11-07T13:45:14.297Z,99691.06
2018-11-07T13:47:44.084Z,99688.86
2018-11-07T13:50:13.616Z,99693.69
2018-11-07T13:52:42.293Z,99689.03
2018-11-07T13:55:12.001Z,99686.58
2018-11-07T13:57:41.282Z,99692.88
2018-11-07T14:00:14.457Z,99695.19
2018-11-07T14:02:43.273Z,99699.66
2018-11-07T14:05:12.446Z,99693.62
2018-11-07T14:07:40.984Z,99700.45
2018-11-07T14:10:12.332Z,99700.61
2018-11-07T14:12:41.565Z,99702.55
2018-11-07T14:15:12.467Z,99701.08
2018-11-07T14:17:41.393Z,99708.05
2018-11-07T14:20:10.399Z,99704.98
2018-11-07T14:22:39.611Z,99710.72
2018-11-07T14:25:09.300Z,99717.23
2018-11-07T14:27:38.106Z,99717.09
2018-11-07T14:30:10.812Z,99716.30
2018-11-07T14:32:42.264Z,99718.91
2018-11-07T14:35:10.800Z,99728.64
2018-11-07T14:37:39.361Z,99732.80
2018-11-07T14:40:08.201Z,99735.23
2018-11-07T14:42:37.268Z,99738.38
2018-11-07T14:45:06.841Z,99738.43
2018-11-07T14:47:35.576Z,99741.97
2018-11-07T14:50:05.007Z,99745.62
2018-11-07T14:52:33.653Z,99743.78
2018-11-07T14:55:02.212Z,99749.59
2018-11-07T14:57:30.753Z,99753.75
2018-11-07T14:59:59.305Z,99756.06
2018-11-07T15:02:27.899Z,99760.86
2018-11-07T15:04:56.452Z,99765.77
2018-11-07T15:07:25.597Z,99766.54
2018-11-07T15:09:54.477Z,99759.66
2018-11-07T15:12:23.166Z,99758.11
2018-11-07T15:14:51.761Z,99766.66
2018-11-07T15:17:20.382Z,99758.19
2018-11-07T15:19:49.093Z,99765.33
2018-11-07T15:22:17.621Z,99765.27
2018-11-07T15:24:46.251Z,99771.74
2018-11-07T15:27:14.844Z,99772.61
2018-11-07T15:29:43.437Z,99768.28
2018-11-07T15:32:12.013Z,99775.34
2018-11-07T15:34:40.628Z,99778.27
2018-11-07T15:37:09.534Z,99780.49
2018-11-07T15:39:38.263Z,99783.77
2018-11-07T15:42:06.837Z,99771.69
2018-11-07T15:44:35.574Z,99773.34
2018-11-07T15:47:04.117Z,99780.55
2018-11-07T15:49:32.748Z,99778.22
2018-11-07T15:52:01.418Z,99785.28
2018-11-07T15:54:29.885Z,99781.14
2018-11-07T15:56:58.558Z,99778.86
2018-11-07T15:59:27.165Z,99793.67
2018-11-07T16:01:55.668Z,99799.47
2018-11-07T16:04:24.357Z,99809.72
2018-11-07T16:06:52.946Z,99816.12
2018-11-07T16:09:21.666Z,99819.78
2018-11-07T16:11:50.432Z,99823.38
2018-11-07T16:14:19.044Z,99828.31
2018-11-07T16:16:47.701Z,99834.31
2018-11-07T16:19:16.284Z,99838.89
2018-11-07T16:21:44.864Z,99844.95
2018-11-07T16:24:13.569Z,99855.59
2018-11-07T16:26:42.233Z,99859.88
2018-11-07T16:29:10.884Z,99867.80
2018-11-07T16:31:39.462Z,99865.30
2018-11-07T16:34:08.060Z,99868.42
2018-11-07T16:36:36.806Z,99861.03
2018-11-07T16:39:08.153Z,99871.34
2018-11-07T16:41:36.833Z,99878.96
2018-11-07T16:44:05.511Z,99883.16
2018-11-07T16:46:34.071Z,99888.92
2018-11-07T16:49:02.598Z,99895.91
2018-11-07T16:51:31.205Z,99894.28
2018-11-07T16:53:59.785Z,99895.20
2018-11-07T16:56:29.330Z,99894.22
2018-11-07T16:58:57.963Z,99907.82
2018-11-07T17:01:26.608Z,99916.48
2018-11-07T17:03:55.349Z,99916.73
2018-11-07T17:06:24.014Z,99917.03
2018-11-07T17:08:52.692Z,99926.77
2018-11-07T17:11:21.297Z,99921.36
2018-11-07T17:13:49.861Z,99934.36
2018-11-07T17:16:18.477Z,99933.02
2018-11-07T17:18:47.021Z,99934.42
2018-11-07T17:21:15.564Z,99941.84
2018-11-07T17:23:44.273Z,99947.09
2018-11-07T17:26:12.905Z,99954.16
2018-11-07T17:28:41.777Z,99961.22
2018-11-07T17:31:10.360Z,99965.62
2018-11-07T17:33:38.910Z,99976.89
2018-11-07T17:36:07.620Z,99978.22
2018-11-07T17:38:36.326Z,99985.81
2018-11-07T17:41:04.893Z,99981.13
2018-11-07T17:43:33.816Z,99988.05
2018-11-07T17:46:02.508Z,99991.38
2018-11-07T17:48:31.087Z,99986.48
2018-11-07T17:50:59.677Z,99988.34
2018-11-07T17:53:28.252Z,99986.35
2018-11-07T17:55:56.805Z,99985.61
2018-11-07T17:58:25.357Z,99986.71
2018-11-07T18:00:54.107Z,99992.11
2018-11-07T18:03:22.773Z,99998.88
2018-11-07T18:05:51.368Z,99992.75
2018-11-07T18:08:20.410Z,99993.55
2018-11-07T18:10:49.021Z,100002.05
2018-11-07T18:13:17.533Z,100000.73
2018-11-07T18:15:46.168Z,100008.22
2018-11-07T18:18:14.847Z,100001.48
2018-11-07T18:20:43.420Z,100013.96
2018-11-07T18:23:12.105Z,100004.89
2018-11-07T18:25:40.716Z,100006.28
2018-11-07T18:28:09.308Z,100015.02
2018-11-07T18:30:37.858Z,100021.80
2018-11-07T18:33:06.469Z,100028.39
2018-11-07T18:35:35.068Z,100039.73
2018-11-07T18:38:04.673Z,100041.00
2018-11-07T18:40:33.232Z,100047.84
2018-11-07T18:43:02.167Z,100052.77
2018-11-07T18:45:30.724Z,100050.44
2018-11-07T18:47:59.368Z,100052.05
2018-11-07T18:50:28.105Z,100059.36
2018-11-07T18:52:57.302Z,100055.49
2018-11-07T18:55:25.952Z,100059.02
2018-11-07T18:57:54.619Z,100058.44
2018-11-07T19:00:23.967Z,100062.78
2018-11-07T19:02:52.602Z,100061.42
2018-11-07T19:05:21.196Z,100045.59
2018-11-07T19:07:49.746Z,100037.78
2018-11-07T19:10:20.851Z,100033.27
2018-11-07T19:12:50.148Z,100037.07
2018-11-07T19:15:18.920Z,100030.53
2018-11-07T19:17:48.707Z,100034.19
2018-11-07T19:20:18.194Z,100034.25
2018-11-07T19:22:46.964Z,100028.67
2018-11-07T19:25:16.947Z,100034.59
2018-11-07T19:27:45.553Z,100038.72
2018-11-07T19:30:15.623Z,100046.37
2018-11-07T19:32:45.436Z,100051.91
2018-11-07T19:35:15.186Z,100054.11
2018-11-07T19:37:44.479Z,100050.82
2018-11-07T19:40:14.538Z,100054.30
2018-11-07T19:42:43.373Z,100043.84
2018-11-07T19:45:14.302Z,100038.45
2018-11-07T19:47:42.935Z,100052.23
2018-11-07T19:50:12.894Z,100046.31
2018-11-07T19:52:41.632Z,100057.55
2018-11-07T19:55:13.363Z,100058.88
2018-11-07T19:57:42.281Z,100060.38
2018-11-07T20:00:13.670Z,100061.13
2018-11-07T20:02:43.417Z,100068.06
2018-11-07T20:05:12.129Z,100071.94
2018-11-07T20:07:40.793Z,100075.88
2018-11-07T20:10:13.271Z,100079.94
2018-11-07T20:12:41.993Z,100079.12
2018-11-07T20:15:12.166Z,100081.73
2018-11-07T20:17:40.874Z,100083.41
2018-11-07T20:20:10.016Z,100084.00
2018-11-07T20:22:38.714Z,100098.87
2018-11-07T20:25:08.373Z,100097.07
2018-11-07T20:27:36.969Z,100107.45
2018-11-07T20:30:08.313Z,100114.57
2018-11-07T20:32:37.052Z,100118.51
2018-11-07T20:35:07.149Z,100123.70
2018-11-07T20:37:35.804Z,100120.48
2018-11-07T20:40:04.839Z,100122.48
2018-11-07T20:42:33.433Z,100129.48
2018-11-07T20:45:02.034Z,100131.58
2018-11-07T20:47:30.665Z,100140.55
2018-11-07T20:49:59.308Z,100147.91
2018-11-07T20:52:27.873Z,100153.88
2018-11-07T20:54:56.470Z,100155.43
2018-11-07T20:57:25.186Z,100156.13
2018-11-07T20:59:53.800Z,100153.36
2018-11-07T21:02:22.444Z,100160.14
2018-11-07T21:04:51.116Z,100163.33
2018-11-07T21:07:20.408Z,100164.90
2018-11-07T21:09:48.944Z,100165.65
2018-11-07T21:12:17.625Z,100170.45
2018-11-07T21:14:46.361Z,100163.15
2018-11-07T21:17:14.944Z,100165.73
2018-11-07T21:19:43.916Z,100167.61
2018-11-07T21:22:13.590Z,100171.26
2018-11-07T21:24:42.285Z,100163.81
2018-11-07T21:27:10.981Z,100162.08
2018-11-07T21:29:39.569Z,100166.07
2018-11-07T21:32:08.188Z,100169.47
2018-11-07T21:34:36.872Z,100167.06
2018-11-07T21:37:05.556Z,100165.95
2018-11-07T21:39:34.108Z,100172.84
2018-11-07T21:42:02.712Z,100175.68
2018-11-07T21:44:31.272Z,100179.45
2018-11-07T21:46:59.845Z,100175.80
2018-11-07T21:49:28.529Z,100178.92
2018-11-07T21:51:57.165Z,100182.17
2018-11-07T21:54:25.712Z,100182.77
2018-11-07T21:56:54.396Z,100183.90
2018-11-07T21:59:22.916Z,100185.80
2018-11-07T22:01:51.445Z,100185.41
2018-11-07T22:04:20.597Z,100191.33
2018-11-07T22:06:49.229Z,100187.91
2018-11-07T22:09:18.048Z,100189.39
2018-11-07T22:11:46.640Z,100188.45
2018-11-07T22:14:15.229Z,100191.59
2018-11-07T22:16:43.984Z,100192.20
2018-11-07T22:19:12.631Z,100197.40
2018-11-07T22:21:41.324Z,100200.41
2018-11-07T22:24:09.959Z,100194.92
2018-11-07T22:26:38.532Z,100203.49
2018-11-07T22:29:07.272Z,100202.48
2018-11-07T22:31:35.832Z,100200.74
2018-11-07T22:34:04.577Z,100209.95
2018-11-07T22:36:33.328Z,100215.05
2018-11-07T22:39:01.918Z,100210.27
2018-11-07T22:41:30.536Z,100212.03
2018-11-07T22:43:59.056Z,100213.63
2018-11-07T22:46:27.714Z,100217.91
2018-11-07T22:48:56.408Z,100225.50
2018-11-07T22:51:24.988Z,100227.30
2018-11-07T22:53:53.588Z,100229.78
2018-11-07T22:56:22.225Z,100228.80
2018-11-07T22:58:50.730Z,100229.15
2018-11-07T23:01:23.521Z,100235.87
2018-11-07T23:03:53.270Z,100230.64
2018-11-07T23:06:21.691Z,100230.70
2018-11-07T23:08:50.461Z,100229.92
2018-11-07T23:11:19.050Z,100234.45
2018-11-07T23:13:47.674Z,100240.13
2018-11-07T23:16:16.266Z,100240.95
2018-11-07T23:18:44.935Z,100235.33
2018-11-07T23:21:13.622Z,100239.09
2018-11-07T23:23:42.222Z,100241.70
2018-11-07T23:26:10.826Z,100243.06
2018-11-07T23:28:39.475Z,100249.49
2018-11-07T23:31:08.016Z,100249.44
2018-11-07T23:33:36.591Z,100253.19
2018-11-07T23:36:05.292Z,100250.15
2018-11-07T23:38:33.828Z,100248.00
2018-11-07T23:41:02.460Z,100261.13
2018-11-07T23:43:31.105Z,100262.45
2018-11-07T23:45:59.745Z,100257.48
2018-11-07T23:48:28.505Z,100263.97
2018-11-07T23:50:57.213Z,100263.16
2018-11-07T23:53:25.898Z,100268.53
2018-11-07T23:55:54.525Z,100271.49
2018-11-07T23:58:23.129Z,100271.87
